To NAV CANADA Home Page Login to a new session Search on AWWS site Disclaimer Vers la page française équivalente Tips FAQ What's new on the site To the Forecasts and Observations / NOTAM section To "File a Flight Plan" website Publications and other links Update of the User's profile FIC Telephone Numbers My Weather Data Folder Route Weather Data Regional Weather Data Local Weather Data To the Forecasts and Observations / NOTAM section
Request Generated 12/01/2020 at 09:19:25 UTC . Weather information available at that time is displayed.


Go to a specific product

Save this request

NOTAM

NOTAM


SIGMET
To the Product Selector

SIGMETS GFACN32

WSCN32 CWEG 010610
SIGMET C2 VALID 010610/010615 CWEG-
CZEG EDMONTON FIR CNCL SIGMET C1 010215/010615
RMK GFACN32 GFACN35
END/WSCN22/CWAO



AIRMET
To the Product Selector

AIRMETS GFACN32

GFACN32 - No AIRMET bulletins in effect



PIREP
To the Product Selector

FIR_WINNIPEG (WG)


UACN10 CYPA 010606
WG
UA /OV CYPA 232107 /TM 0602 /FL370 /TP B77L /TA -52 /WV 270023 /RM
NIL TURB ENRTE PANC KORD


METAR/TAF
To the Product Selector

REGINA INTL/SK    

METAR CYQR 010900Z 25009KT 15SM FEW240 M04/M06 A2973 RMK CI1 PRESRR SLP097=
METAR CYQR 010800Z 25010KT 15SM BKN160 M02/M06 A2969 RMK AC5 SLP084=
METAR CYQR 010700Z 24008KT 15SM SKC M02/M07 A2968 RMK SLP081=

TAF CYQR 010540Z 0106/0206 24012KT P6SM FEW200
FM011000 27010KT P6SM FEW020 BKN200
BECMG 0110/0112 31018G28KT
FM011200 31018G28KT P6SM FEW020 OVC080 TEMPO 0112/0114 5SM -SHSN
BKN020 OVC060
FM011400 31015G25KT 6SM -SHSN SCT008 OVC015 TEMPO 0114/0119 2SM
-SHSN BKN008 OVC015 PROB30 0114/0119 1SM -SHSN OVC005
FM011900 31020G30KT P6SM -SN FEW005 SCT020 OVC030 TEMPO 0119/0124
5SM -SN SCT005 OVC015
FM020000 32016KT P6SM FEW015 BKN025
BECMG 0204/0206 30010KT
RMK NXT FCST BY 011200Z=

MOOSE JAW/AIR VICE MARSHAL C.M. MCEWEN/SK    

CYMJ - METAR not available

*** REMARK        : Forecast period has ended; this was the last TAF issued
*** REMARQUE : La période de prévision est échue; ceci était le dernier TAF qui a été émis
TAF AMD CYMJ 302108Z 3018/0106 FCST CNCLD DUE END OF FLYING PROGRAM
RMK NXT FCST WILL BE ISSUED AT 011115Z=


RADAR PCPN RATE
To the Product Selector
Pacific Canada      Western Canada     

SATELLITE VISIBLE
To the Product Selector
West Canada      

SATELLITE INFRARED
To the Product Selector
West Canada     

GRAPHICAL FA CLOUDS & WEATHER FORECASTS
To the Product Selector
Graphical FA gfacn32      

GRAPHICAL FA ICING, TURBULENCE & FREEZING LEVEL FORECASTS
To the Product Selector
Graphical FA gfacn32      

FDTEXT Low Level FD. Temperatures are not forecast for the 3,000-foot level.
To the Product Selector
STN YQR - REGINA. SASK for use 3000 6000 9000 12000 18000
FDCN01 CWAO FCST BASED ON 010000 DATA VALID 010600 05-09 2624+02 2525-03 2422-09 2421-23
FDCN02 CWAO FCST BASED ON 010000 DATA VALID 011200 09-18 3535-03 3223-05 3015-12 2520-24
FDCN03 CWAO FCST BASED ON 010000 DATA VALID 020000 18-05 3424-05 0117-07 3609-13 0314-25



Your time UTC time
Weather data provided by Environment Canada and NAV CANADA